Time;durP1;ratioP1;P1;durP2;ratioP2;P2;SDS_P1;SDS_P2;PMS_P1;PMS_P2;Temp;Humidity;BMP_temperature;BMP_pressure;BME280_temperature;BME280_humidity;BME280_pressure;Samples;Min_cycle;Max_cycle;Signal;HPM_P1;HPM_P2
2022/11/02 00:03:12;;;;;;;48.80;27.20;;;;;;;11.49;86.33;100077.79;209220;1293;140561;-69
2022/11/02 00:08:17;;;;;;;34.20;24.90;;;;;;;11.50;86.41;100076.79;210117;1295;140593;-68
2022/11/02 00:13:22;;;;;;;34.90;25.10;;;;;;;11.48;86.13;100088.48;210047;1304;140521;-71
2022/11/02 00:18:28;;;;;;;39.90;24.20;;;;;;;11.43;86.35;100090.98;209992;1296;141457;-75
2022/11/02 00:23:32;;;;;;;36.80;24.10;;;;;;;11.42;86.57;100096.46;209996;1295;140315;-76
2022/11/02 00:28:37;;;;;;;30.10;22.40;;;;;;;11.47;86.53;100090.43;209231;1293;142200;-72
2022/11/02 00:33:41;;;;;;;38.10;21.60;;;;;;;11.50;86.51;100093.50;209897;1296;141326;-75
2022/11/02 00:38:43;;;;;;;30.60;23.20;;;;;;;11.54;86.69;100097.83;208064;1289;142208;-73
2022/11/02 00:43:48;;;;;;;34.70;24.10;;;;;;;11.60;87.02;100104.31;210066;1297;140537;-72
2022/11/02 00:48:52;;;;;;;34.70;23.00;;;;;;;11.65;87.32;100100.73;210050;1281;141809;-79
2022/11/02 00:53:56;;;;;;;30.80;21.80;;;;;;;11.73;87.62;100101.71;209906;1301;140059;-72
2022/11/02 00:59:01;;;;;;;30.60;23.30;;;;;;;11.81;87.49;100105.55;207807;1296;141616;-70
2022/11/02 01:04:06;;;;;;;37.60;23.20;;;;;;;11.84;87.63;100099.16;209955;1300;140782;-67
2022/11/02 01:09:12;;;;;;;32.00;20.80;;;;;;;11.89;87.61;100100.08;210248;1295;141468;-72
2022/11/02 01:14:16;;;;;;;30.70;20.60;;;;;;;11.95;87.97;100100.55;210001;1297;140341;-73
2022/11/02 01:19:19;;;;;;;32.30;21.90;;;;;;;11.99;87.80;100100.55;209979;1296;140618;-74
2022/11/02 01:24:23;;;;;;;21.90;19.00;;;;;;;12.05;87.89;100103.13;209916;1302;141026;-77
2022/11/02 01:29:26;;;;;;;26.40;21.30;;;;;;;12.09;87.81;100101.68;210021;1297;140655;-75
2022/11/02 01:34:30;;;;;;;30.40;20.10;;;;;;;12.16;87.99;100107.55;209971;1295;141923;-73
2022/11/02 01:39:33;;;;;;;28.90;20.80;;;;;;;12.26;87.95;100107.27;210061;1300;140941;-73
2022/11/02 01:44:39;;;;;;;33.40;19.80;;;;;;;12.36;88.11;100103.39;210107;1288;141535;-70
2022/11/02 01:49:46;;;;;;;29.30;17.90;;;;;;;12.43;88.17;100107.24;210120;1296;141759;-73
2022/11/02 01:55:00;;;;;;;26.40;19.30;;;;;;;12.41;87.98;100107.45;210010;1287;161582;-71
2022/11/02 02:00:08;;;;;;;29.30;18.10;;;;;;;12.40;88.22;100103.96;209926;1297;142146;-76
2022/11/02 02:05:14;;;;;;;27.50;20.80;;;;;;;12.44;88.11;100105.27;208733;1289;230373;-73
2022/11/02 02:10:18;;;;;;;27.50;18.30;;;;;;;12.47;88.37;100108.98;209513;1296;140550;-75
2022/11/02 02:15:38;;;;;;;27.60;19.80;;;;;;;12.55;88.58;100108.14;209219;1299;141098;-76
2022/11/02 02:21:01;;;;;;;26.10;18.30;;;;;;;12.60;88.36;100109.35;209998;1291;140398;-86
2022/11/02 02:26:17;;;;;;;23.50;17.00;;;;;;;12.60;88.33;100106.30;210080;1295;140719;-73
2022/11/02 02:31:39;;;;;;;24.90;18.30;;;;;;;12.57;88.10;100106.61;209470;1289;140531;-72
2022/11/02 02:36:57;;;;;;;24.50;16.50;;;;;;;12.59;88.09;100108.10;210003;1289;140641;-73
2022/11/02 02:42:12;;;;;;;20.60;17.20;;;;;;;12.60;87.89;100114.55;209028;1296;140188;-74
2022/11/02 02:47:22;;;;;;;24.10;18.70;;;;;;;12.64;88.12;100121.85;209951;1296;140924;-74
2022/11/02 02:52:30;;;;;;;23.20;16.50;;;;;;;12.66;87.96;100123.11;207206;1300;141347;-68
2022/11/02 02:57:35;;;;;;;23.40;17.90;;;;;;;12.66;88.26;100129.31;208929;1290;140915;-72
2022/11/02 03:02:43;;;;;;;24.10;16.60;;;;;;;12.67;88.13;100131.86;209500;1297;141605;-72
2022/11/02 03:07:49;;;;;;;27.60;18.50;;;;;;;12.67;88.04;100133.68;209919;1303;142606;-73
2022/11/02 03:13:15;;;;;;;22.70;16.90;;;;;;;12.69;88.30;100135.33;209857;1297;142174;-72
2022/11/02 03:18:46;;;;;;;22.00;16.50;;;;;;;12.78;88.47;100140.20;210052;1295;231087;-73
2022/11/02 03:24:03;;;;;;;28.30;18.50;;;;;;;12.86;88.45;100148.20;209990;1297;141121;-71
2022/11/02 03:29:12;;;;;;;23.70;17.80;;;;;;;12.89;88.32;100149.38;210146;1295;142325;-72
2022/11/02 03:34:33;;;;;;;27.50;18.60;;;;;;;12.90;88.23;100151.91;210069;1297;139281;-72
2022/11/02 03:39:44;;;;;;;23.00;18.10;;;;;;;12.93;88.44;100154.92;210152;1294;142172;-71
2022/11/02 03:45:01;;;;;;;28.70;17.80;;;;;;;12.98;88.45;100154.43;209921;1290;142867;-71
2022/11/02 03:50:08;;;;;;;29.70;16.90;;;;;;;12.98;88.04;100159.63;210001;1295;142698;-73
2022/11/02 03:55:19;;;;;;;23.00;18.60;;;;;;;13.01;88.31;100156.02;210063;1289;141730;-69
2022/11/02 04:00:26;;;;;;;22.70;17.90;;;;;;;13.04;88.31;100157.77;210038;1295;141282;-70
2022/11/02 04:05:32;;;;;;;23.30;18.40;;;;;;;13.13;88.48;100160.34;210036;1300;140068;-72
2022/11/02 04:14:36;;;;;;;26.70;16.60;;;;;;;13.17;88.39;100162.48;207047;1294;140214;-67
2022/11/02 04:16:04;;;;;;;22.60;14.20;;;;;;;13.15;88.36;100167.81;210166;1302;209840;-72
2022/11/02 04:21:09;;;;;;;22.80;16.10;;;;;;;13.22;88.29;100173.77;210239;1294;140465;-74
2022/11/02 04:26:14;;;;;;;26.50;16.70;;;;;;;13.25;88.32;100173.66;209347;1287;141177;-71
2022/11/02 04:31:19;;;;;;;23.80;16.80;;;;;;;13.25;87.97;100171.36;209446;1297;142147;-71
2022/11/02 04:36:27;;;;;;;18.30;14.30;;;;;;;13.23;87.84;100166.63;210029;1295;142138;-71
2022/11/02 04:41:41;;;;;;;22.90;15.80;;;;;;;13.15;87.63;100163.47;210018;1295;140890;-70
2022/11/02 04:46:46;;;;;;;23.60;16.60;;;;;;;13.13;87.76;100166.21;210173;1295;141509;-70
2022/11/02 04:51:50;;;;;;;20.50;13.30;;;;;;;13.08;87.44;100179.42;210068;1289;140499;-72
2022/11/02 04:56:55;;;;;;;20.50;15.30;;;;;;;12.99;87.39;100176.02;209851;1297;141118;-71
2022/11/02 05:01:59;;;;;;;20.30;13.30;;;;;;;13.03;87.60;100182.83;209872;1296;141660;-70
2022/11/02 05:07:06;;;;;;;18.60;15.10;;;;;;;13.00;87.24;100181.07;210029;1296;140025;-71
2022/11/02 05:12:10;;;;;;;21.50;15.70;;;;;;;12.95;87.66;100182.14;209752;1283;140135;-72
2022/11/02 05:17:15;;;;;;;21.40;14.90;;;;;;;12.94;87.48;100193.48;210062;1300;142399;-79
2022/11/02 05:22:20;;;;;;;22.10;17.40;;;;;;;12.92;87.21;100197.44;210021;1295;141219;-78
2022/11/02 05:27:25;;;;;;;24.30;15.70;;;;;;;12.87;87.03;100197.40;210088;1295;141044;-76
2022/11/02 05:32:29;;;;;;;25.80;19.20;;;;;;;12.87;87.07;100201.67;210030;1297;142508;-76
2022/11/02 05:37:32;;;;;;;20.20;14.40;;;;;;;12.82;87.10;100207.69;209864;1298;141258;-84
2022/11/02 05:42:37;;;;;;;22.70;15.40;;;;;;;12.77;87.05;100207.27;210131;1287;140569;-82
2022/11/02 05:47:41;;;;;;;27.70;16.80;;;;;;;12.77;87.32;100208.24;210057;1295;150901;-83
2022/11/02 05:52:45;;;;;;;23.40;16.20;;;;;;;12.77;87.21;100208.79;209966;1296;140367;-83
2022/11/02 05:57:54;;;;;;;27.20;17.70;;;;;;;12.76;86.85;100210.32;210008;1292;141334;-81
2022/11/02 06:02:58;;;;;;;21.60;15.20;;;;;;;12.78;87.28;100218.44;209907;1297;140979;-77
2022/11/02 06:08:02;;;;;;;17.70;14.10;;;;;;;12.80;87.12;100223.09;209968;1287;141981;-77
2022/11/02 06:13:06;;;;;;;19.60;15.00;;;;;;;12.82;87.24;100221.73;209829;1291;141026;-80
2022/11/02 06:18:10;;;;;;;23.60;15.40;;;;;;;12.78;87.11;100219.97;209949;1283;141415;-73
2022/11/02 06:23:17;;;;;;;22.20;15.10;;;;;;;12.75;86.92;100227.48;209871;1296;142298;-72
2022/11/02 06:28:22;;;;;;;22.70;14.90;;;;;;;12.79;87.20;100236.77;208987;1297;1155880;-76
2022/11/02 06:33:27;;;;;;;22.60;13.90;;;;;;;12.86;87.00;100241.03;210032;1296;141468;-75
2022/11/02 06:38:33;;;;;;;22.30;15.60;;;;;;;12.86;86.80;100242.95;209944;1294;140924;-79
2022/11/02 06:43:37;;;;;;;25.30;15.20;;;;;;;12.84;86.59;100245.23;207754;1295;140539;-76
2022/11/02 06:48:40;;;;;;;22.00;14.60;;;;;;;12.82;86.57;100246.02;210160;1302;140417;-75
2022/11/02 06:53:44;;;;;;;31.80;17.10;;;;;;;12.80;86.62;100244.05;210098;1302;141624;-76
2022/11/02 06:58:48;;;;;;;28.50;16.30;;;;;;;12.84;86.47;100245.21;210028;1294;140712;-75
2022/11/02 07:03:51;;;;;;;21.10;16.40;;;;;;;12.88;86.45;100244.71;210042;1298;140451;-77
2022/11/02 07:08:55;;;;;;;23.30;16.00;;;;;;;12.91;86.25;100244.90;208438;1297;139846;-75
2022/11/02 07:13:58;;;;;;;21.90;15.60;;;;;;;12.89;86.01;100245.54;209988;1296;141023;-74
2022/11/02 07:19:02;;;;;;;27.10;16.30;;;;;;;12.93;86.15;100247.39;210047;1287;140497;-75
2022/11/02 07:24:06;;;;;;;24.00;16.00;;;;;;;12.95;85.94;100245.45;210041;1294;140404;-74
2022/11/02 07:29:09;;;;;;;28.20;18.20;;;;;;;12.97;85.92;100252.73;209977;1294;139640;-73
2022/11/02 07:34:14;;;;;;;26.90;16.30;;;;;;;13.07;85.94;100252.13;209917;1302;140904;-79
2022/11/02 07:39:19;;;;;;;23.20;16.20;;;;;;;13.19;85.73;100251.84;210107;1297;141867;-78
2022/11/02 07:44:23;;;;;;;28.10;18.60;;;;;;;13.24;85.28;100250.96;210064;1299;139570;-73
2022/11/02 07:49:26;;;;;;;23.40;15.50;;;;;;;13.27;85.26;100248.09;209786;1302;140114;-79
2022/11/02 07:54:30;;;;;;;25.40;17.90;;;;;;;13.39;85.21;100239.96;209973;1295;142604;-78
2022/11/02 07:59:35;;;;;;;25.60;17.30;;;;;;;13.54;84.89;100239.40;210030;1304;141179;-72
2022/11/02 08:04:40;;;;;;;24.60;16.20;;;;;;;13.66;84.63;100240.15;209992;1301;140820;-68
2022/11/02 08:09:49;;;;;;;25.20;16.10;;;;;;;13.72;84.09;100234.36;210244;1295;140670;-66
2022/11/02 08:14:53;;;;;;;28.70;17.10;;;;;;;13.68;83.62;100241.63;209961;1297;141910;-67
2022/11/02 08:19:57;;;;;;;27.80;16.50;;;;;;;13.69;83.58;100247.92;209562;1302;142439;-65
2022/11/02 08:25:02;;;;;;;29.50;18.10;;;;;;;13.69;83.68;100245.13;209835;1297;141068;-67
2022/11/02 08:30:06;;;;;;;24.10;16.70;;;;;;;13.70;83.67;100251.69;210142;1294;141953;-64
2022/11/02 08:35:10;;;;;;;24.40;16.80;;;;;;;13.76;83.68;100253.33;209912;1303;141804;-67
2022/11/02 08:40:16;;;;;;;20.10;14.90;;;;;;;13.81;83.57;100256.52;209682;1301;140912;-68
2022/11/02 08:45:20;;;;;;;19.80;15.30;;;;;;;13.78;83.22;100257.48;209658;1302;154670;-69
2022/11/02 08:50:25;;;;;;;21.30;14.20;;;;;;;13.77;82.99;100257.64;208552;1290;140546;-68
2022/11/02 08:55:30;;;;;;;21.50;16.10;;;;;;;13.76;82.92;100259.88;209842;1295;142433;-68
2022/11/02 09:00:35;;;;;;;20.70;14.30;;;;;;;13.79;82.92;100252.47;209726;1298;141075;-68
2022/11/02 09:05:44;;;;;;;18.40;15.00;;;;;;;13.81;82.87;100247.84;209850;1292;140748;-66
2022/11/02 09:10:51;;;;;;;24.20;17.50;;;;;;;13.90;83.07;100242.25;210057;1302;226510;-67
2022/11/02 09:15:57;;;;;;;21.60;14.90;;;;;;;13.89;82.58;100239.77;208840;1303;141665;-66
2022/11/02 09:21:03;;;;;;;18.80;13.00;;;;;;;13.86;82.45;100239.45;209061;1302;141021;-68
2022/11/02 09:26:08;;;;;;;23.60;15.90;;;;;;;13.86;82.46;100237.47;209750;1298;140858;-69
2022/11/02 09:31:11;;;;;;;16.10;13.20;;;;;;;13.85;82.22;100236.75;209860;1290;141052;-65
2022/11/02 09:36:16;;;;;;;93.50;55.30;;;;;;;13.96;82.24;100236.56;209722;1303;141884;-68
2022/11/02 09:41:32;;;;;;;24.30;21.80;;;;;;;14.17;82.51;100238.42;209928;1304;140016;-68
2022/11/02 09:46:38;;;;;;;26.00;14.90;;;;;;;14.55;82.43;100237.69;210060;1302;142137;-68
2022/11/02 09:51:54;;;;;;;17.50;10.60;;;;;;;14.97;82.24;100231.71;209803;1305;141119;-68
2022/11/02 09:57:07;;;;;;;10.40;8.10;;;;;;;15.03;81.02;100230.23;209963;1299;140113;-67
2022/11/02 10:02:43;;;;;;;18.00;11.20;;;;;;;14.94;80.47;100237.66;209926;1303;140208;-66
2022/11/02 10:08:05;;;;;;;12.30;7.10;;;;;;;14.99;80.44;100240.48;210049;1295;152024;-64
2022/11/02 10:13:31;;;;;;;13.70;7.90;;;;;;;15.23;80.28;100234.80;210029;1294;140876;-65
2022/11/02 10:18:38;;;;;;;11.50;7.80;;;;;;;15.52;79.64;100237.02;208751;1298;244947;-68
2022/11/02 10:23:53;;;;;;;8.50;5.80;;;;;;;15.73;78.95;100233.29;209090;1295;140156;-68
2022/11/02 10:29:11;;;;;;;8.80;6.80;;;;;;;15.81;77.92;100236.44;210120;1286;141609;-67
2022/11/02 10:34:27;;;;;;;8.80;6.20;;;;;;;15.86;77.34;100232.45;208217;1290;143184;-67
2022/11/02 10:39:53;;;;;;;13.30;7.00;;;;;;;15.96;77.12;100230.61;210163;1287;141160;-68
2022/11/02 10:45:20;;;;;;;10.90;5.90;;;;;;;16.06;76.30;100233.23;210151;1302;141201;-67
2022/11/02 10:50:33;;;;;;;10.20;6.60;;;;;;;16.12;75.84;100231.23;210136;1304;140775;-67
2022/11/02 10:56:19;;;;;;;22.30;17.40;;;;;;;16.26;75.61;100227.21;207203;1294;141246;-67
2022/11/02 11:01:24;;;;;;;11.20;9.20;;;;;;;16.35;74.82;100225.17;207414;1303;140755;-67
2022/11/02 11:06:28;;;;;;;7.70;6.80;;;;;;;16.46;74.35;100220.45;207651;1293;139998;-67
2022/11/02 11:11:38;;;;;;;11.80;10.40;;;;;;;16.52;73.92;100218.80;206869;1299;140409;-67
2022/11/02 11:16:47;;;;;;;7.10;6.20;;;;;;;16.60;73.67;100220.73;206719;1288;140214;-67
2022/11/02 11:21:52;;;;;;;7.40;6.70;;;;;;;16.71;73.53;100220.43;210286;1302;140890;-67
2022/11/02 11:27:13;;;;;;;13.90;6.30;;;;;;;16.75;72.85;100218.95;208714;1294;140396;-66
2022/11/02 11:32:24;;;;;;;8.40;5.80;;;;;;;16.78;72.58;100215.99;210088;1292;141223;-67
2022/11/02 11:37:33;;;;;;;14.50;6.00;;;;;;;16.77;72.15;100205.01;210019;1287;224246;-67
2022/11/02 11:42:41;;;;;;;6.50;4.90;;;;;;;16.83;71.85;100199.35;209865;1293;141142;-67
2022/11/02 11:48:01;;;;;;;9.40;5.10;;;;;;;16.92;71.36;100195.94;209974;1303;141137;-67
2022/11/02 11:53:14;;;;;;;7.50;4.90;;;;;;;16.89;70.85;100192.70;210183;1287;140179;-67
2022/11/02 11:58:26;;;;;;;13.80;5.80;;;;;;;16.85;70.45;100193.97;210118;1296;139954;-67
2022/11/02 12:03:31;;;;;;;8.20;5.30;;;;;;;16.88;70.36;100189.89;210051;1296;140697;-67
2022/11/02 12:08:57;;;;;;;7.20;4.80;;;;;;;16.92;69.95;100195.39;209959;1296;140496;-67
2022/11/02 12:14:19;;;;;;;10.00;3.40;;;;;;;16.88;69.24;100198.61;208264;1295;142258;-68
2022/11/02 12:19:47;;;;;;;5.40;4.20;;;;;;;16.85;68.99;100204.26;210151;1295;142020;-65
2022/11/02 12:25:11;;;;;;;9.10;6.50;;;;;;;16.79;68.80;100207.77;209967;1289;140823;-68
2022/11/02 12:30:22;;;;;;;7.20;4.00;;;;;;;16.88;68.55;100206.16;210054;1296;141449;-68
2022/11/02 12:35:32;;;;;;;4.60;4.10;;;;;;;17.02;68.59;100198.88;209695;1296;141337;-69
2022/11/02 12:40:56;;;;;;;6.80;3.80;;;;;;;17.15;68.06;100201.21;209284;1294;151017;-68
2022/11/02 12:46:28;;;;;;;5.70;3.50;;;;;;;17.10;67.04;100201.00;210068;1297;139897;-66
2022/11/02 12:52:13;;;;;;;6.90;3.20;;;;;;;16.93;66.76;100197.02;210184;1296;221122;-64
2022/11/02 12:57:22;;;;;;;9.30;3.70;;;;;;;16.73;66.29;100202.22;208971;1290;140121;-64
2022/11/02 13:02:37;;;;;;;12.90;3.20;;;;;;;16.54;66.23;100195.88;210169;1291;140293;-65
2022/11/02 13:07:52;;;;;;;2.60;2.10;;;;;;;16.42;66.01;100197.72;210121;1304;141029;-64
2022/11/02 13:13:00;;;;;;;8.80;3.10;;;;;;;16.27;65.67;100200.16;210026;1297;139962;-64
2022/11/02 13:18:14;;;;;;;8.50;3.10;;;;;;;16.15;65.57;100199.13;209162;1296;141506;-66
2022/11/02 13:23:40;;;;;;;10.80;3.50;;;;;;;16.01;65.36;100203.49;210079;1294;140227;-65
2022/11/02 13:28:53;;;;;;;8.50;4.10;;;;;;;15.93;65.60;100201.62;209548;1297;142216;-67
2022/11/02 13:34:09;;;;;;;4.30;3.30;;;;;;;15.86;65.47;100204.27;209702;1295;140520;-65
2022/11/02 13:39:17;;;;;;;6.10;3.60;;;;;;;15.75;65.43;100192.30;210028;1301;140982;-66
2022/11/02 13:45:00;;;;;;;5.90;3.20;;;;;;;15.66;65.67;100189.21;210186;1295;140848;-65
2022/11/02 13:50:12;;;;;;;11.60;3.10;;;;;;;15.58;65.69;100186.56;210072;1302;224908;-65
2022/11/02 13:55:25;;;;;;;6.30;3.50;;;;;;;15.55;66.00;100185.89;210081;1289;140551;-67
2022/11/02 14:00:44;;;;;;;5.30;3.30;;;;;;;15.50;65.85;100191.80;210027;1298;139855;-66
2022/11/02 14:05:59;;;;;;;7.50;2.70;;;;;;;15.41;65.64;100195.37;210011;1288;140209;-65
2022/11/02 14:11:12;;;;;;;5.60;3.40;;;;;;;15.33;65.83;100199.16;210007;1298;140909;-66
2022/11/02 14:16:42;;;;;;;6.60;3.30;;;;;;;15.25;65.89;100201.89;209971;1295;140116;-65
2022/11/02 14:21:58;;;;;;;5.60;2.70;;;;;;;15.17;65.85;100200.69;209171;1297;141380;-66
2022/11/02 14:27:23;;;;;;;6.20;2.40;;;;;;;15.04;65.83;100205.59;206755;1287;141629;-69
2022/11/02 14:32:40;;;;;;;8.00;3.50;;;;;;;14.90;65.82;100204.96;209966;1295;140854;-70
2022/11/02 14:38:03;;;;;;;7.50;3.30;;;;;;;14.71;65.98;100210.44;208763;1303;140297;-70
2022/11/02 14:43:11;;;;;;;6.30;2.70;;;;;;;14.42;65.70;100217.35;206801;1296;141273;-66
2022/11/02 14:48:15;;;;;;;4.00;2.70;;;;;;;14.14;66.03;100213.45;206813;1296;140701;-68
2022/11/02 14:53:31;;;;;;;4.40;2.30;;;;;;;13.91;66.27;100214.52;206575;1301;140458;-67
2022/11/02 14:58:39;;;;;;;4.30;1.80;;;;;;;13.70;66.54;100218.29;208939;1300;140087;-67
2022/11/02 15:03:44;;;;;;;12.80;3.40;;;;;;;13.45;66.64;100218.10;207718;1288;140663;-65
2022/11/02 15:09:02;;;;;;;9.70;2.90;;;;;;;13.32;66.76;100217.92;210057;1300;143134;-68
2022/11/02 15:14:34;;;;;;;4.30;2.60;;;;;;;13.18;66.60;100220.44;209764;1296;141416;-69
2022/11/02 15:19:45;;;;;;;5.30;1.90;;;;;;;13.03;66.93;100225.92;210158;1303;139551;-71
2022/11/02 15:24:50;;;;;;;7.50;2.90;;;;;;;12.87;67.00;100230.10;210157;1302;142421;-68
2022/11/02 15:29:54;;;;;;;10.60;3.30;;;;;;;12.72;67.12;100239.55;209931;1302;140300;-69
2022/11/02 15:34:59;;;;;;;6.90;2.70;;;;;;;12.53;66.93;100247.65;209924;1301;140076;-67
2022/11/02 15:40:17;;;;;;;16.40;2.70;;;;;;;12.34;67.16;100251.49;209956;1302;140574;-67
2022/11/02 15:45:48;;;;;;;6.80;3.00;;;;;;;12.18;67.45;100252.74;210245;1295;140793;-65
2022/11/02 15:51:24;;;;;;;6.90;4.00;;;;;;;12.02;67.77;100254.61;209896;1304;140489;-67
2022/11/02 15:56:46;;;;;;;8.30;4.60;;;;;;;11.88;67.75;100260.00;210013;1295;139699;-65
2022/11/02 16:02:09;;;;;;;11.20;4.60;;;;;;;11.75;68.20;100265.22;210131;1295;140347;-66
2022/11/02 16:07:16;;;;;;;10.60;3.90;;;;;;;11.64;68.47;100265.83;209937;1296;140020;-67
2022/11/02 16:12:22;;;;;;;7.00;3.30;;;;;;;11.60;68.54;100265.58;209921;1296;140794;-66
2022/11/02 16:17:31;;;;;;;8.70;3.20;;;;;;;11.50;68.50;100270.02;209872;1296;139899;-68
2022/11/02 16:22:36;;;;;;;8.50;4.00;;;;;;;11.39;68.93;100267.59;209913;1297;151253;-67
2022/11/02 16:27:40;;;;;;;5.00;2.60;;;;;;;11.27;68.98;100266.66;209952;1296;140162;-65
2022/11/02 16:32:46;;;;;;;9.80;3.50;;;;;;;11.18;69.43;100269.49;210189;1284;140323;-64
2022/11/02 16:37:52;;;;;;;12.90;5.80;;;;;;;11.13;69.78;100270.48;209979;1296;139666;-68
2022/11/02 16:42:56;;;;;;;11.70;4.20;;;;;;;11.18;69.98;100267.35;209844;1297;141206;-68
2022/11/02 16:48:03;;;;;;;9.20;4.00;;;;;;;11.25;70.26;100274.82;209983;1296;143419;-66
2022/11/02 16:53:30;;;;;;;8.70;4.30;;;;;;;11.30;70.46;100278.54;210104;1297;140186;-67
2022/11/02 16:58:51;;;;;;;9.20;4.70;;;;;;;11.37;70.88;100284.05;208942;1281;141231;-66
2022/11/02 17:03:55;;;;;;;11.80;3.80;;;;;;;11.45;71.03;100287.92;206976;1289;140440;-66
2022/11/02 17:09:03;;;;;;;12.70;5.40;;;;;;;11.53;70.96;100292.70;210051;1297;140616;-66
2022/11/02 17:14:11;;;;;;;15.00;7.40;;;;;;;11.62;71.08;100293.25;209330;1295;142206;-66
2022/11/02 17:19:41;;;;;;;24.30;10.10;;;;;;;11.68;71.27;100299.65;207874;1290;140043;-69
2022/11/02 17:24:47;;;;;;;11.60;6.40;;;;;;;11.73;71.14;100300.48;206737;1287;140813;-65
2022/11/02 17:29:56;;;;;;;12.10;6.90;;;;;;;11.78;71.33;100297.73;209968;1298;140033;-65
2022/11/02 17:35:01;;;;;;;14.60;6.70;;;;;;;11.80;71.25;100302.77;210091;1296;141168;-69
2022/11/02 17:40:09;;;;;;;11.10;6.90;;;;;;;11.83;71.33;100303.80;209885;1297;141638;-67
2022/11/02 17:45:23;;;;;;;9.10;6.00;;;;;;;11.85;71.11;100301.25;209977;1289;141344;-64
2022/11/02 17:50:30;;;;;;;12.70;8.50;;;;;;;11.82;71.13;100307.42;209913;1297;140023;-67
2022/11/02 17:55:36;;;;;;;14.00;6.00;;;;;;;11.79;71.17;100311.13;209754;1296;140558;-68
2022/11/02 18:00:42;;;;;;;12.70;6.80;;;;;;;11.75;71.58;100309.14;209948;1295;141381;-67
2022/11/02 18:05:51;;;;;;;13.10;9.60;;;;;;;11.70;71.51;100311.88;209793;1300;140600;-67
2022/11/02 18:11:08;;;;;;;26.00;10.90;;;;;;;11.69;71.40;100312.50;209806;1294;141060;-68
2022/11/02 18:16:13;;;;;;;15.80;9.60;;;;;;;11.72;71.97;100319.40;209969;1287;140799;-66
2022/11/02 18:21:17;;;;;;;18.00;9.50;;;;;;;11.72;71.89;100327.54;210189;1296;142073;-67
2022/11/02 18:26:22;;;;;;;19.60;8.30;;;;;;;11.70;72.03;100337.63;209540;1294;729166;-66
2022/11/02 18:31:25;;;;;;;16.10;8.00;;;;;;;11.66;72.36;100339.70;209932;1296;141109;-65
2022/11/02 18:36:29;;;;;;;13.50;8.30;;;;;;;11.68;72.42;100342.38;210062;1297;140925;-68
2022/11/02 18:41:34;;;;;;;15.70;8.20;;;;;;;11.74;72.49;100337.98;207006;1296;140042;-66
2022/11/02 18:46:39;;;;;;;14.70;7.70;;;;;;;11.72;72.58;100343.33;210006;1297;140799;-67
2022/11/02 18:51:44;;;;;;;11.30;5.60;;;;;;;11.66;72.74;100346.80;209781;1293;140098;-67
2022/11/02 18:56:48;;;;;;;20.80;7.50;;;;;;;11.60;72.96;100344.52;209120;1296;140576;-72
2022/11/02 19:01:52;;;;;;;28.40;7.00;;;;;;;11.55;72.91;100354.01;206661;1295;141177;-69
2022/11/02 19:12:22;;;;;;;18.00;7.80;;;;;;;11.47;73.45;100353.36;209999;1295;140882;-68
2022/11/02 19:17:26;;;;;;;14.20;8.00;;;;;;;11.41;73.30;100354.67;209181;1280;140451;-70
2022/11/02 19:22:29;;;;;;;16.00;6.70;;;;;;;11.36;73.72;100352.23;210022;1296;140701;-69
2022/11/02 19:27:33;;;;;;;13.90;7.10;;;;;;;11.30;73.64;100355.97;210051;1293;141237;-66
2022/11/02 19:32:37;;;;;;;14.70;8.10;;;;;;;11.27;73.63;100354.34;209723;1302;141911;-65
2022/11/02 19:37:40;;;;;;;14.30;8.00;;;;;;;11.26;73.91;100362.55;209990;1296;140316;-70
2022/11/02 19:42:44;;;;;;;13.20;7.20;;;;;;;11.18;74.17;100374.30;209240;1280;140290;-69
2022/11/02 19:47:49;;;;;;;15.30;7.30;;;;;;;11.12;74.24;100381.34;206763;1288;141540;-69
2022/11/02 19:52:53;;;;;;;17.40;8.50;;;;;;;11.12;74.55;100381.70;208014;1287;141085;-68
2022/11/02 19:57:56;;;;;;;23.60;11.20;;;;;;;11.16;74.87;100383.85;210079;1296;140768;-66
2022/11/02 20:03:00;;;;;;;17.90;9.90;;;;;;;11.19;74.88;100381.77;209910;1303;140855;-68
2022/11/02 20:08:04;;;;;;;14.20;7.40;;;;;;;11.19;75.16;100381.55;210158;1295;140341;-67
2022/11/02 20:13:09;;;;;;;17.40;7.90;;;;;;;11.15;74.94;100382.75;209836;1304;140964;-65
2022/11/02 20:18:14;;;;;;;11.40;7.80;;;;;;;11.14;75.30;100386.58;209795;1293;234825;-67
2022/11/02 20:23:23;;;;;;;8.90;5.60;;;;;;;11.14;75.31;100381.92;210090;1297;141118;-65
2022/11/02 20:28:29;;;;;;;9.70;7.40;;;;;;;11.08;75.36;100387.94;209995;1303;140445;-66
2022/11/02 20:33:34;;;;;;;12.20;5.50;;;;;;;11.02;75.48;100390.23;210145;1289;140164;-66
2022/11/02 20:38:39;;;;;;;13.00;5.80;;;;;;;10.95;75.04;100394.39;209007;1290;141725;-65
2022/11/02 20:43:46;;;;;;;13.30;5.00;;;;;;;10.86;75.08;100405.46;209918;1297;143377;-64
2022/11/02 20:48:53;;;;;;;7.70;4.90;;;;;;;10.73;74.99;100410.66;207813;1289;140848;-66
2022/11/02 20:53:56;;;;;;;11.00;5.40;;;;;;;10.61;75.09;100422.63;207068;1280;139886;-67
2022/11/02 20:59:00;;;;;;;6.40;3.70;;;;;;;10.48;75.24;100423.67;209939;1287;140192;-69
2022/11/02 21:04:07;;;;;;;9.90;4.60;;;;;;;10.37;75.28;100421.80;210137;1289;141012;-66
2022/11/02 21:09:17;;;;;;;12.00;5.20;;;;;;;10.29;75.16;100421.48;210005;1302;141733;-65
2022/11/02 21:14:22;;;;;;;11.70;5.50;;;;;;;10.15;74.88;100426.84;209021;1289;141204;-65
2022/11/02 21:19:26;;;;;;;14.00;4.40;;;;;;;10.00;75.04;100430.38;206482;1292;141227;-68
2022/11/02 21:24:30;;;;;;;3.40;2.80;;;;;;;9.85;75.11;100432.45;209382;1297;140987;-67
2022/11/02 21:29:34;;;;;;;7.20;3.50;;;;;;;9.75;75.20;100435.09;210150;1289;139506;-67
2022/11/02 21:34:38;;;;;;;6.70;3.70;;;;;;;9.63;75.10;100430.52;209244;1297;140691;-67
2022/11/02 21:39:42;;;;;;;6.40;3.80;;;;;;;9.56;75.42;100425.39;210144;1297;141259;-64
2022/11/02 21:44:46;;;;;;;9.60;3.30;;;;;;;9.54;75.61;100427.64;209287;1297;142148;-67
2022/11/02 21:49:49;;;;;;;3.90;2.50;;;;;;;9.44;75.40;100429.48;209945;1298;140462;-67
2022/11/02 21:54:53;;;;;;;7.50;3.70;;;;;;;9.28;75.28;100436.77;209949;1293;141872;-65
2022/11/02 21:59:57;;;;;;;6.20;4.00;;;;;;;9.24;75.81;100433.19;208181;1297;152662;-64
2022/11/02 22:05:00;;;;;;;11.70;4.10;;;;;;;9.22;75.93;100434.77;209841;1299;142925;-64
2022/11/02 22:10:04;;;;;;;9.90;4.50;;;;;;;9.14;75.76;100442.02;210043;1288;140256;-65
2022/11/02 22:15:08;;;;;;;14.30;5.00;;;;;;;9.02;76.06;100449.57;210141;1287;140358;-68
2022/11/02 22:20:11;;;;;;;10.20;5.10;;;;;;;8.98;76.23;100452.15;210128;1289;139491;-65
2022/11/02 22:25:15;;;;;;;10.50;4.70;;;;;;;8.94;76.19;100452.97;210021;1295;141965;-64
2022/11/02 22:30:18;;;;;;;7.60;5.20;;;;;;;8.88;76.52;100450.48;209881;1295;141224;-65
2022/11/02 22:35:21;;;;;;;7.70;4.50;;;;;;;8.84;76.51;100456.52;210158;1297;140896;-68
2022/11/02 22:40:27;;;;;;;12.90;5.50;;;;;;;8.75;76.37;100460.65;209511;1301;139695;-64
2022/11/02 22:45:31;;;;;;;9.90;6.50;;;;;;;8.68;76.38;100465.42;210040;1288;141440;-67
2022/11/02 22:50:35;;;;;;;11.30;7.30;;;;;;;8.63;76.51;100470.94;208775;1297;140612;-64
2022/11/02 22:55:38;;;;;;;9.20;5.80;;;;;;;8.56;76.85;100478.35;208966;1295;141013;-69
2022/11/02 23:00:42;;;;;;;11.40;7.00;;;;;;;8.44;76.69;100478.13;209994;1296;140989;-67
2022/11/02 23:05:47;;;;;;;10.40;6.60;;;;;;;8.35;76.92;100479.64;207429;1296;141001;-65
2022/11/02 23:16:22;;;;;;;13.30;6.70;;;;;;;8.26;77.25;100478.14;207737;1303;140710;-69
2022/11/02 23:21:26;;;;;;;13.30;7.70;;;;;;;8.22;77.22;100482.07;207564;1297;140944;-68